createdAt,value
2018-02-24T00:00:56.935Z,97669.48
2018-02-24T00:03:27.927Z,97672.97
2018-02-24T00:05:58.909Z,97667.08
2018-02-24T00:08:29.899Z,97669.34
2018-02-24T00:11:00.906Z,97666.36
2018-02-24T00:13:31.910Z,97670.38
2018-02-24T00:16:02.930Z,97664.89
2018-02-24T00:18:33.905Z,97667.56
2018-02-24T00:21:04.930Z,97664.84
2018-02-24T00:23:35.946Z,97669.89
2018-02-24T00:26:06.921Z,97673.95
2018-02-24T00:28:37.878Z,97673.05
2018-02-24T00:31:08.884Z,97670.95
2018-02-24T00:33:39.892Z,97669.84
2018-02-24T00:36:10.898Z,97676.63
2018-02-24T00:38:41.904Z,97669.77
2018-02-24T00:41:12.889Z,97664.44
2018-02-24T00:43:43.898Z,97665.52
2018-02-24T00:46:14.872Z,97672.51
2018-02-24T00:48:45.885Z,97677.11
2018-02-24T00:51:16.937Z,97675.83
2018-02-24T00:53:47.925Z,97671.80
2018-02-24T00:56:18.953Z,97683.87
2018-02-24T00:58:49.958Z,97680.17
2018-02-24T01:01:20.991Z,97680.41
2018-02-24T01:03:51.980Z,97684.28
2018-02-24T01:06:22.988Z,97678.63
2018-02-24T01:08:53.982Z,97679.44
2018-02-24T01:11:24.990Z,97683.41
2018-02-24T01:13:56.021Z,97669.85
2018-02-24T01:16:27.019Z,97677.27
2018-02-24T01:18:58.033Z,97675.67
2018-02-24T01:21:29.013Z,97669.68
2018-02-24T01:24:00.071Z,97669.86
2018-02-24T01:26:31.045Z,97676.45
2018-02-24T01:29:02.059Z,97668.80
2018-02-24T01:31:33.091Z,97673.65
2018-02-24T01:34:04.070Z,97671.28
2018-02-24T01:36:35.103Z,97674.59
2018-02-24T01:39:06.082Z,97683.61
2018-02-24T01:41:37.082Z,97683.13
2018-02-24T01:44:08.020Z,97678.93
2018-02-24T01:46:39.025Z,97687.95
2018-02-24T01:49:10.035Z,97690.36
2018-02-24T01:51:41.032Z,97687.38
2018-02-24T01:54:12.030Z,97685.36
2018-02-24T01:56:43.024Z,97689.06
2018-02-24T01:59:14.061Z,97689.22
2018-02-24T02:01:45.056Z,97685.28
2018-02-24T02:04:16.051Z,97680.50
2018-02-24T02:06:47.051Z,97678.56
2018-02-24T02:09:18.036Z,97690.23
2018-02-24T02:11:49.054Z,97689.42
2018-02-24T02:14:20.051Z,97693.80
2018-02-24T02:16:51.061Z,97695.45
2018-02-24T02:19:22.088Z,97694.87
2018-02-24T02:21:53.150Z,97697.22
2018-02-24T02:24:24.148Z,97697.95
2018-02-24T02:26:55.165Z,97703.37
2018-02-24T02:29:26.171Z,97699.03
2018-02-24T02:31:57.181Z,97697.16
2018-02-24T02:34:28.173Z,97708.07
2018-02-24T02:36:59.168Z,97705.27
2018-02-24T02:39:30.151Z,97711.38
2018-02-24T02:42:01.166Z,97710.24
2018-02-24T02:44:32.180Z,97708.33
2018-02-24T02:47:03.173Z,97710.42
2018-02-24T02:49:34.152Z,97701.44
2018-02-24T02:52:05.123Z,97697.56
2018-02-24T02:54:36.138Z,97698.97
2018-02-24T02:57:07.112Z,97697.34
2018-02-24T02:59:38.091Z,97705.72
2018-02-24T03:02:09.123Z,97706.15
2018-02-24T03:04:40.100Z,97712.72
2018-02-24T03:07:11.142Z,97710.07
2018-02-24T03:09:42.104Z,97716.92
2018-02-24T03:12:13.122Z,97709.06
2018-02-24T03:14:44.084Z,97710.48
2018-02-24T03:17:15.169Z,97705.80
2018-02-24T03:19:46.146Z,97710.11
2018-02-24T03:22:17.117Z,97713.05
2018-02-24T03:24:48.123Z,97716.33
2018-02-24T03:27:19.134Z,97717.80
2018-02-24T03:29:50.158Z,97715.64
2018-02-24T03:32:21.129Z,97716.41
2018-02-24T03:34:52.136Z,97723.38
2018-02-24T03:37:23.153Z,97724.70
2018-02-24T03:39:54.196Z,97721.66
2018-02-24T03:42:25.203Z,97722.20
2018-02-24T03:44:56.192Z,97726.41
2018-02-24T03:47:27.223Z,97726.27
2018-02-24T03:49:58.213Z,97733.91
2018-02-24T03:52:29.228Z,97732.90
2018-02-24T03:55:00.198Z,97731.44
2018-02-24T03:57:31.198Z,97732.42
2018-02-24T04:00:02.239Z,97731.14
2018-02-24T04:02:33.240Z,97739.66
2018-02-24T04:05:04.324Z,97739.53
2018-02-24T04:07:35.348Z,97746.46
2018-02-24T04:10:06.344Z,97747.05
2018-02-24T04:12:37.337Z,97751.30
2018-02-24T04:15:08.396Z,97750.32
2018-02-24T04:17:39.402Z,97750.84
2018-02-24T04:20:10.408Z,97753.49
2018-02-24T04:22:41.386Z,97750.78
2018-02-24T04:25:12.412Z,97744.61
2018-02-24T04:27:43.433Z,97753.88
2018-02-24T04:30:14.453Z,97752.87
2018-02-24T04:32:45.493Z,97761.61
2018-02-24T04:35:16.479Z,97760.64
2018-02-24T04:37:47.509Z,97769.19
2018-02-24T04:40:18.549Z,97770.31
2018-02-24T04:42:49.527Z,97763.42
2018-02-24T04:45:20.529Z,97765.23
2018-02-24T04:47:51.533Z,97756.28
2018-02-24T04:50:22.545Z,97760.56
2018-02-24T04:52:53.500Z,97763.41
2018-02-24T04:55:24.547Z,97759.70
2018-02-24T04:57:55.618Z,97767.78
2018-02-24T05:00:26.600Z,97769.28
2018-02-24T05:02:57.640Z,97766.06
2018-02-24T05:05:28.608Z,97763.19
2018-02-24T05:07:59.609Z,97770.97
2018-02-24T05:10:30.574Z,97768.18
2018-02-24T05:13:01.568Z,97776.32
2018-02-24T05:15:32.556Z,97780.69
2018-02-24T05:18:03.536Z,97779.06
2018-02-24T05:20:34.522Z,97783.09
2018-02-24T05:23:05.538Z,97774.55
2018-02-24T05:25:36.549Z,97777.16
2018-02-24T05:28:07.652Z,97791.86
2018-02-24T05:30:38.635Z,97790.17
2018-02-24T05:33:09.607Z,97786.15
2018-02-24T05:35:40.610Z,97794.05
2018-02-24T05:38:11.595Z,97796.83
2018-02-24T05:40:42.589Z,97789.89
2018-02-24T05:43:13.603Z,97793.54
2018-02-24T05:45:44.548Z,97793.54
2018-02-24T05:48:15.573Z,97806.05
2018-02-24T05:50:46.615Z,97812.00
2018-02-24T05:53:17.584Z,97806.13
2018-02-24T05:55:48.560Z,97811.44
2018-02-24T05:58:19.588Z,97821.00
2018-02-24T06:00:50.565Z,97824.15
2018-02-24T06:03:21.602Z,97834.25
2018-02-24T06:05:52.642Z,97830.06
2018-02-24T06:08:23.620Z,97829.12
2018-02-24T06:10:54.612Z,97832.59
2018-02-24T06:13:25.659Z,97834.56
2018-02-24T06:15:56.622Z,97839.77
2018-02-24T06:18:27.619Z,97838.45
2018-02-24T06:20:58.613Z,97843.48
2018-02-24T06:23:29.580Z,97857.17
2018-02-24T06:26:00.596Z,97856.43
2018-02-24T06:28:31.589Z,97857.75
2018-02-24T06:31:02.590Z,97850.98
2018-02-24T06:33:33.590Z,97857.75
2018-02-24T06:36:04.629Z,97859.91
2018-02-24T06:38:35.664Z,97851.26
2018-02-24T06:41:06.673Z,97855.58
2018-02-24T06:43:37.694Z,97859.10
2018-02-24T06:46:08.693Z,97860.79
2018-02-24T06:48:39.689Z,97855.40
2018-02-24T06:51:10.739Z,97861.66
2018-02-24T06:53:41.743Z,97859.52
2018-02-24T06:56:12.703Z,97872.83
2018-02-24T06:58:43.685Z,97866.21
2018-02-24T07:01:14.718Z,97871.41
2018-02-24T07:03:45.703Z,97874.72
2018-02-24T07:06:16.760Z,97877.03
2018-02-24T07:08:47.768Z,97884.80
2018-02-24T07:11:19.277Z,97874.95
2018-02-24T07:13:50.302Z,97876.71
2018-02-24T07:16:21.305Z,97878.84
2018-02-24T07:18:52.293Z,97883.39
2018-02-24T07:21:23.291Z,97880.02
2018-02-24T07:23:54.301Z,97880.55
2018-02-24T07:26:25.251Z,97886.04
2018-02-24T07:28:56.273Z,97893.85
2018-02-24T07:31:27.305Z,97888.61
2018-02-24T07:33:58.324Z,97887.36
2018-02-24T07:36:29.323Z,97900.45
2018-02-24T07:39:00.334Z,97894.97
2018-02-24T07:41:31.319Z,97897.59
2018-02-24T07:44:02.378Z,97891.42
2018-02-24T07:46:33.358Z,97892.25
2018-02-24T07:49:04.363Z,97894.71
2018-02-24T07:51:35.363Z,97900.50
2018-02-24T07:54:06.375Z,97900.28
2018-02-24T07:56:37.343Z,97907.66
2018-02-24T07:59:08.381Z,97910.09
2018-02-24T08:01:39.352Z,97904.22
2018-02-24T08:04:10.374Z,97915.32
2018-02-24T08:06:41.390Z,97909.23
2018-02-24T08:09:13.289Z,97916.77
2018-02-24T08:11:44.307Z,97915.13
2018-02-24T08:14:15.310Z,97907.88
2018-02-24T08:16:46.322Z,97912.27
2018-02-24T08:19:17.359Z,97913.86
2018-02-24T08:21:48.403Z,97904.72
2018-02-24T08:24:19.403Z,97884.84
2018-02-24T08:26:50.398Z,97876.03
2018-02-24T08:29:21.918Z,97884.98
2018-02-24T08:31:52.984Z,97875.72
2018-02-24T08:34:23.968Z,97875.06
2018-02-24T08:36:54.932Z,97863.14
2018-02-24T08:39:25.919Z,97862.76
2018-02-24T08:41:56.904Z,97859.96
2018-02-24T08:44:27.905Z,97858.13
2018-02-24T08:46:58.885Z,97868.96
2018-02-24T08:49:29.875Z,97851.64
2018-02-24T08:52:00.883Z,97853.88
2018-02-24T08:54:31.904Z,97850.03
2018-02-24T08:57:02.938Z,97849.75
2018-02-24T08:59:33.922Z,97843.89
2018-02-24T09:02:04.910Z,97855.72
2018-02-24T09:04:35.921Z,97840.97
2018-02-24T09:07:06.926Z,97829.05
2018-02-24T09:09:37.917Z,97837.81
2018-02-24T09:12:08.965Z,97840.21
2018-02-24T09:14:39.947Z,97843.60
2018-02-24T09:17:10.959Z,97852.86
2018-02-24T09:19:41.923Z,97857.61
2018-02-24T09:22:12.970Z,97872.09
2018-02-24T09:24:43.953Z,97865.13
2018-02-24T09:27:14.974Z,97864.08
2018-02-24T09:29:45.929Z,97856.34
2018-02-24T09:32:16.958Z,97863.87
2018-02-24T09:34:47.929Z,97862.96
2018-02-24T09:37:18.943Z,97854.64
2018-02-24T09:39:49.961Z,97861.66
2018-02-24T09:42:20.955Z,97855.38
2018-02-24T09:44:51.938Z,97864.25
2018-02-24T09:47:22.996Z,97864.41
2018-02-24T09:49:54.018Z,97849.40
2018-02-24T09:52:24.992Z,97856.09
2018-02-24T09:54:55.951Z,97863.44
2018-02-24T09:57:26.925Z,97863.98
2018-02-24T09:59:57.910Z,97858.06
2018-02-24T10:02:28.920Z,97857.21
2018-02-24T10:04:59.892Z,97851.15
2018-02-24T10:07:30.924Z,97852.09
2018-02-24T10:10:01.930Z,97851.08
2018-02-24T10:12:32.963Z,97862.41
2018-02-24T10:15:03.987Z,97855.87
2018-02-24T10:17:34.943Z,97853.42
2018-02-24T10:20:05.924Z,97852.94
2018-02-24T10:22:36.917Z,97838.52
2018-02-24T10:25:07.936Z,97846.13
2018-02-24T10:27:38.931Z,97841.17
2018-02-24T10:30:09.956Z,97841.98
2018-02-24T10:32:40.946Z,97833.19
2018-02-24T10:35:11.922Z,97842.42
2018-02-24T10:37:42.932Z,97836.63
2018-02-24T10:40:13.972Z,97838.96
2018-02-24T10:42:44.936Z,97841.22
2018-02-24T10:45:15.912Z,97840.24
2018-02-24T10:47:46.911Z,97840.62
2018-02-24T10:50:17.881Z,97834.24
2018-02-24T10:52:48.914Z,97828.42
2018-02-24T10:55:19.865Z,97822.45
2018-02-24T10:57:50.947Z,97827.20
2018-02-24T11:00:21.939Z,97813.58
2018-02-24T11:02:53.004Z,97819.80
2018-02-24T11:05:24.006Z,97816.75
2018-02-24T11:07:54.998Z,97811.58
2018-02-24T11:10:26.021Z,97808.13
2018-02-24T11:12:57.023Z,97809.27
2018-02-24T11:15:28.043Z,97801.87
2018-02-24T11:17:58.996Z,97797.97
2018-02-24T11:20:30.005Z,97802.84
2018-02-24T11:23:01.018Z,97807.96
2018-02-24T11:25:32.744Z,97787.68
2018-02-24T11:28:03.744Z,97798.39
2018-02-24T11:30:34.720Z,97793.75
2018-02-24T11:33:05.700Z,97808.86
2018-02-24T11:35:36.686Z,97808.47
2018-02-24T11:38:07.698Z,97810.11
2018-02-24T11:40:38.676Z,97814.80
2018-02-24T11:43:09.677Z,97815.89
2018-02-24T11:45:40.676Z,97816.00
2018-02-24T11:48:11.731Z,97809.20
2018-02-24T11:50:42.751Z,97809.88
2018-02-24T11:53:13.758Z,97801.66
2018-02-24T11:55:44.766Z,97801.56
2018-02-24T11:58:15.842Z,97808.80
2018-02-24T12:00:46.856Z,97807.78
2018-02-24T12:03:17.867Z,97794.94
2018-02-24T12:05:48.885Z,97797.95
2018-02-24T12:08:19.847Z,97788.75
2018-02-24T12:10:50.825Z,97798.34
2018-02-24T12:13:21.800Z,97787.62
2018-02-24T12:15:52.850Z,97784.59
2018-02-24T12:18:23.849Z,97796.25
2018-02-24T12:20:54.837Z,97781.13
2018-02-24T12:23:25.844Z,97779.11
2018-02-24T12:25:56.824Z,97783.53
2018-02-24T12:28:27.835Z,97777.30
2018-02-24T12:30:58.894Z,97787.52
2018-02-24T12:33:29.916Z,97769.55
2018-02-24T12:36:00.923Z,97774.91
2018-02-24T12:38:31.938Z,97770.14
2018-02-24T12:41:02.960Z,97772.05
2018-02-24T12:43:34.005Z,97770.02
2018-02-24T12:46:04.987Z,97774.25
2018-02-24T12:48:35.983Z,97782.00
2018-02-24T12:51:07.001Z,97777.52
2018-02-24T12:53:38.019Z,97773.75
2018-02-24T12:56:09.015Z,97779.98
2018-02-24T12:58:40.087Z,97771.16
2018-02-24T13:01:11.160Z,97778.91
2018-02-24T13:03:42.173Z,97774.49
2018-02-24T13:06:13.203Z,97767.57
2018-02-24T13:08:44.180Z,97769.89
2018-02-24T13:11:15.184Z,97777.91
2018-02-24T13:13:46.189Z,97782.19
2018-02-24T13:16:17.176Z,97777.69
2018-02-24T13:18:48.164Z,97766.95
2018-02-24T13:21:19.213Z,97765.01
2018-02-24T13:23:50.193Z,97768.49
2018-02-24T13:26:21.217Z,97772.89
2018-02-24T13:28:52.189Z,97763.30
2018-02-24T13:31:23.199Z,97760.41
2018-02-24T13:33:54.239Z,97770.70
2018-02-24T13:36:25.249Z,97773.29
2018-02-24T13:38:56.270Z,97774.53
2018-02-24T13:41:27.261Z,97775.80
2018-02-24T13:43:58.284Z,97780.04
2018-02-24T13:46:29.262Z,97780.75
2018-02-24T13:49:00.256Z,97785.36
2018-02-24T13:51:31.303Z,97785.59
2018-02-24T13:54:02.334Z,97779.69
2018-02-24T13:56:33.340Z,97782.09
2018-02-24T13:59:04.337Z,97790.03
2018-02-24T14:01:35.339Z,97786.72
2018-02-24T14:04:06.387Z,97787.93
2018-02-24T14:06:37.363Z,97792.91
2018-02-24T14:09:08.502Z,97792.13
2018-02-24T14:11:39.488Z,97796.92
2018-02-24T14:14:10.572Z,97782.69
2018-02-24T14:16:41.600Z,97784.45
2018-02-24T14:19:12.618Z,97789.97
2018-02-24T14:21:43.638Z,97787.23
2018-02-24T14:24:14.622Z,97796.59
2018-02-24T14:26:45.669Z,97804.38
2018-02-24T14:29:16.627Z,97792.38
2018-02-24T14:31:47.677Z,97788.23
2018-02-24T14:34:18.649Z,97789.50
2018-02-24T14:36:49.716Z,97792.88
2018-02-24T14:39:20.726Z,97798.00
2018-02-24T14:41:51.726Z,97802.09
2018-02-24T14:44:22.755Z,97805.27
2018-02-24T14:46:53.769Z,97811.64
2018-02-24T14:49:24.748Z,97814.33
2018-02-24T14:51:55.718Z,97807.30
2018-02-24T14:54:26.710Z,97806.93
2018-02-24T14:56:57.804Z,97803.73
2018-02-24T14:59:28.886Z,97810.83
2018-02-24T15:01:59.915Z,97811.38
2018-02-24T15:04:30.912Z,97807.51
2018-02-24T15:07:01.903Z,97811.88
2018-02-24T15:09:32.958Z,97814.20
2018-02-24T15:15:00.438Z,97820.17
2018-02-24T15:17:31.447Z,97823.58
2018-02-24T15:20:02.522Z,97814.22
2018-02-24T15:22:33.527Z,97834.85
2018-02-24T15:25:04.582Z,97833.18
2018-02-24T15:27:35.565Z,97820.49
2018-02-24T15:30:06.612Z,97840.71
2018-02-24T15:32:37.675Z,97839.66
2018-02-24T15:35:08.721Z,97851.73
2018-02-24T15:37:39.766Z,97843.45
2018-02-24T15:40:10.729Z,97857.02
2018-02-24T15:42:41.754Z,97858.95
2018-02-24T15:45:12.810Z,97866.77
2018-02-24T15:47:43.820Z,97861.84
2018-02-24T15:50:14.843Z,97864.84
2018-02-24T15:52:45.884Z,97867.69
2018-02-24T15:55:16.895Z,97873.27
2018-02-24T15:57:47.906Z,97884.22
2018-02-24T16:00:18.907Z,97878.25
2018-02-24T16:02:49.925Z,97882.61
2018-02-24T16:05:20.912Z,97880.97
2018-02-24T16:07:51.935Z,97870.41
2018-02-24T16:10:23.007Z,97868.88
2018-02-24T16:12:54.082Z,97869.28
2018-02-24T16:15:25.049Z,97876.88
2018-02-24T16:18:03.209Z,97881.55
2018-02-24T16:20:34.209Z,97884.30
2018-02-24T16:23:05.217Z,97892.03
2018-02-24T16:25:36.188Z,97884.73
2018-02-24T16:28:07.197Z,97892.78
2018-02-24T16:30:38.214Z,97902.59
2018-02-24T16:33:10.047Z,97908.45
2018-02-24T16:35:41.038Z,97913.52
2018-02-24T16:38:12.016Z,97908.17
2018-02-24T16:40:42.987Z,97920.03
2018-02-24T16:43:13.971Z,97926.05
2018-02-24T16:45:44.939Z,97930.42
2018-02-24T16:48:16.975Z,97925.97
2018-02-24T16:50:47.954Z,97921.92
2018-02-24T16:53:18.969Z,97932.62
2018-02-24T16:55:49.939Z,97939.70
2018-02-24T16:58:20.976Z,97940.69
2018-02-24T17:00:51.950Z,97951.20
2018-02-24T17:03:22.940Z,97952.80
2018-02-24T17:05:53.953Z,97959.05
2018-02-24T17:08:24.982Z,97959.39
2018-02-24T17:10:55.976Z,97951.84
2018-02-24T17:13:26.936Z,97964.02
2018-02-24T17:15:57.995Z,97962.41
2018-02-24T17:18:29.005Z,97972.46
2018-02-24T17:21:00.050Z,97966.31
2018-02-24T17:23:31.036Z,97970.88
2018-02-24T17:26:02.041Z,97970.62
2018-02-24T17:31:29.096Z,97976.86
2018-02-24T17:34:00.111Z,97989.17
2018-02-24T17:36:31.142Z,97986.64
2018-02-24T17:39:02.199Z,97989.23
2018-02-24T17:41:33.148Z,97991.52
2018-02-24T17:44:04.139Z,97989.88
2018-02-24T17:46:35.139Z,97996.77
2018-02-24T17:49:06.099Z,98002.73
2018-02-24T17:51:37.125Z,97998.63
2018-02-24T17:54:08.190Z,97992.50
2018-02-24T17:56:39.214Z,97989.50
2018-02-24T17:59:10.224Z,97993.45
2018-02-24T18:01:48.454Z,97996.52
2018-02-24T18:04:19.503Z,97997.11
2018-02-24T18:06:50.550Z,97996.11
2018-02-24T18:09:21.579Z,98000.15
2018-02-24T18:11:52.641Z,97999.51
2018-02-24T18:14:23.613Z,97989.34
2018-02-24T18:16:54.604Z,98004.03
2018-02-24T18:19:25.609Z,98011.08
2018-02-24T18:21:56.588Z,98005.27
2018-02-24T18:24:27.660Z,98008.48
2018-02-24T18:26:58.722Z,98014.13
2018-02-24T18:29:29.675Z,98014.22
2018-02-24T18:32:00.644Z,98019.20
2018-02-24T18:34:31.631Z,98026.81
2018-02-24T18:37:02.716Z,98025.98
2018-02-24T18:39:33.700Z,98025.75
2018-02-24T18:42:04.773Z,98028.26
2018-02-24T18:44:35.784Z,98030.81
2018-02-24T18:47:06.793Z,98028.18
2018-02-24T18:49:37.778Z,98028.10
2018-02-24T18:52:08.832Z,98033.34
2018-02-24T18:54:39.841Z,98028.39
2018-02-24T18:57:10.824Z,98026.29
2018-02-24T18:59:41.783Z,98036.06
2018-02-24T19:02:12.837Z,98026.12
2018-02-24T19:04:43.902Z,98043.48
2018-02-24T19:07:14.940Z,98045.81
2018-02-24T19:09:45.914Z,98043.71
2018-02-24T19:12:16.893Z,98051.61
2018-02-24T19:14:47.905Z,98049.00
2018-02-24T19:17:18.884Z,98048.41
2018-02-24T19:19:49.876Z,98053.31
2018-02-24T19:22:20.950Z,98056.41
2018-02-24T19:24:51.909Z,98049.52
2018-02-24T19:27:22.944Z,98062.57
2018-02-24T19:29:53.974Z,98057.25
2018-02-24T19:32:25.070Z,98057.98
2018-02-24T19:34:56.070Z,98062.30
2018-02-24T19:37:27.070Z,98067.39
2018-02-24T19:39:58.104Z,98064.84
2018-02-24T19:42:29.090Z,98066.82
2018-02-24T19:45:00.192Z,98067.77
2018-02-24T19:47:31.212Z,98064.52
2018-02-24T19:50:02.254Z,98059.02
2018-02-24T19:52:33.208Z,98065.96
2018-02-24T19:55:04.277Z,98064.00
2018-02-24T19:57:35.258Z,98078.58
2018-02-24T20:00:06.351Z,98090.63
2018-02-24T20:02:37.301Z,98082.77
2018-02-24T20:05:08.315Z,98086.66
2018-02-24T20:07:39.284Z,98080.87
2018-02-24T20:10:10.348Z,98083.86
2018-02-24T20:12:41.403Z,98086.83
2018-02-24T20:15:12.431Z,98094.02
2018-02-24T20:17:43.416Z,98091.69
2018-02-24T20:20:14.456Z,98105.66
2018-02-24T20:22:45.421Z,98108.01
2018-02-24T20:25:16.411Z,98108.33
2018-02-24T20:27:47.424Z,98109.26
2018-02-24T20:30:18.427Z,98110.39
2018-02-24T20:32:49.454Z,98103.20
2018-02-24T20:35:20.467Z,98115.11
2018-02-24T20:37:51.561Z,98118.22
2018-02-24T20:40:22.546Z,98121.28
2018-02-24T20:42:53.537Z,98126.67
2018-02-24T20:45:24.549Z,98128.95
2018-02-24T20:47:55.539Z,98134.61
2018-02-24T20:50:26.527Z,98142.40
2018-02-24T20:52:57.562Z,98130.67
2018-02-24T20:55:28.640Z,98143.55
2018-02-24T20:57:59.640Z,98147.97
2018-02-24T21:00:30.688Z,98141.37
2018-02-24T21:03:01.801Z,98149.54
2018-02-24T21:05:32.792Z,98147.03
2018-02-24T21:08:03.791Z,98149.74
2018-02-24T21:10:34.771Z,98148.08
2018-02-24T21:13:05.797Z,98145.22
2018-02-24T21:15:36.823Z,98147.55
2018-02-24T21:18:07.764Z,98142.78
2018-02-24T21:20:38.789Z,98148.13
2018-02-24T21:23:09.792Z,98150.88
2018-02-24T21:25:41.200Z,98149.19
2018-02-24T21:28:12.268Z,98155.52
2018-02-24T21:30:43.248Z,98156.09
2018-02-24T21:33:14.234Z,98159.89
2018-02-24T21:35:45.253Z,98156.31
2018-02-24T21:38:16.260Z,98153.67
2018-02-24T21:40:47.269Z,98159.47
2018-02-24T21:43:18.245Z,98157.94
2018-02-24T21:45:49.280Z,98160.10
2018-02-24T21:48:20.267Z,98166.11
2018-02-24T21:50:51.293Z,98159.70
2018-02-24T21:53:22.356Z,98159.33
2018-02-24T21:55:53.346Z,98156.45
2018-02-24T21:58:24.360Z,98154.91
2018-02-24T22:00:55.377Z,98160.77
2018-02-24T22:03:26.422Z,98163.84
2018-02-24T22:05:57.392Z,98167.70
2018-02-24T22:08:35.277Z,98164.50
2018-02-24T22:11:06.276Z,98168.05
2018-02-24T22:13:37.289Z,98166.38
2018-02-24T22:16:08.288Z,98166.17
2018-02-24T22:18:39.332Z,98164.47
2018-02-24T22:21:10.360Z,98168.85
2018-02-24T22:23:41.345Z,98169.95
2018-02-24T22:26:12.356Z,98172.94
2018-02-24T22:28:43.396Z,98177.33
2018-02-24T22:31:14.398Z,98176.14
2018-02-24T22:33:45.376Z,98167.80
2018-02-24T22:36:16.443Z,98169.58
2018-02-24T22:38:47.460Z,98173.22
2018-02-24T22:41:18.432Z,98175.39
2018-02-24T22:43:49.448Z,98179.99
2018-02-24T22:46:20.442Z,98176.42
2018-02-24T22:48:57.530Z,98175.26
2018-02-24T22:51:28.527Z,98177.57
2018-02-24T22:53:59.516Z,98186.91
2018-02-24T22:56:30.487Z,98184.12
2018-02-24T22:59:01.507Z,98188.17
2018-02-24T23:01:32.534Z,98188.31
2018-02-24T23:04:03.568Z,98183.46
2018-02-24T23:06:34.566Z,98184.05
2018-02-24T23:09:05.547Z,98190.73
2018-02-24T23:11:36.536Z,98190.48
2018-02-24T23:14:07.518Z,98202.65
2018-02-24T23:16:38.512Z,98193.31
2018-02-24T23:19:09.524Z,98199.80
2018-02-24T23:21:40.504Z,98196.13
2018-02-24T23:24:11.512Z,98201.37
2018-02-24T23:26:42.504Z,98192.56
2018-02-24T23:29:13.538Z,98198.36
2018-02-24T23:31:44.520Z,98196.33
2018-02-24T23:34:15.582Z,98196.61
2018-02-24T23:36:46.566Z,98199.83
2018-02-24T23:39:17.587Z,98196.73
2018-02-24T23:41:48.558Z,98188.96
2018-02-24T23:44:19.567Z,98193.75
2018-02-24T23:46:50.539Z,98190.12
2018-02-24T23:49:21.540Z,98187.80
2018-02-24T23:51:52.576Z,98190.19
2018-02-24T23:54:23.550Z,98194.57
2018-02-24T23:56:54.538Z,98198.48
2018-02-24T23:59:25.492Z,98198.20
